Pietersburg, South Africa
Current Conditions -  °F | °C
As of 6:00 AM on Sunday 25 Jan 2015 (Local Time) from FAPP Reporting Station
Clear Clear  
Wind Chill: 57°   Ceiling: Unl
Heat Index: 57°   Visibility: 6mi
Dew Point: 50°   Wind: 2mph
Humidity: 77%   Direction: 40°NE
Pressure: 30.09"   Gusts: NA
Location:  23.89°S, 29.45°E
Report Text: FAPP 250400Z 04002KT CAVOK 14/10 Q1019 NOSIG
Loading
Personal Weather Stations






























Interactive Weather Map New forecast layout! Learn more

10-Day Weather Forecast

Advertisements
Track Severe Weather on mobile